Time;durP1;ratioP1;P1;durP2;ratioP2;P2;SDS_P1;SDS_P2;PMS_P1;PMS_P2;Temp;Humidity;BMP_temperature;BMP_pressure;BME280_temperature;BME280_humidity;BME280_pressure;Samples;Min_cycle;Max_cycle;Signal;HPM_P1;HPM_P2
2023/01/18 00:01:09;;;;;;;10.82;2.50;;;;;;;;;;4878510;29;20558;-73
2023/01/18 00:03:37;;;;;;;10.45;2.10;;;;;;;;;;4892501;29;20100;-77
2023/01/18 00:06:05;;;;;;;8.05;2.90;;;;;;;;;;4879036;29;20032;-78
2023/01/18 00:08:32;;;;;;;10.60;2.50;;;;;;;;;;4872048;29;20033;-75
2023/01/18 00:11:14;;;;;;;7.13;2.10;;;;;;;;;;4895782;29;20063;-73
2023/01/18 00:13:40;;;;;;;17.00;2.95;;;;;;;;;;4896195;29;20044;-73
2023/01/18 00:16:18;;;;;;;10.95;2.28;;;;;;;;;;4896282;29;20029;-74
2023/01/18 00:18:50;;;;;;;6.63;1.65;;;;;;;;;;4890359;29;20436;-73
2023/01/18 00:21:16;;;;;;;7.40;1.70;;;;;;;;;;4894618;29;20033;-73
2023/01/18 00:23:41;;;;;;;8.25;1.70;;;;;;;;;;4879504;29;20100;-74
2023/01/18 00:26:09;;;;;;;7.55;1.77;;;;;;;;;;4891717;29;20151;-74
2023/01/18 00:28:36;;;;;;;8.45;2.10;;;;;;;;;;4877612;29;20116;-74
2023/01/18 00:31:17;;;;;;;10.68;2.60;;;;;;;;;;4875608;29;20137;-74
2023/01/18 00:33:44;;;;;;;11.32;2.53;;;;;;;;;;4877478;29;20045;-75
2023/01/18 00:36:11;;;;;;;6.82;2.03;;;;;;;;;;4877566;29;20033;-74
2023/01/18 00:38:36;;;;;;;10.38;2.05;;;;;;;;;;4877611;29;20522;-74
2023/01/18 00:41:03;;;;;;;6.97;1.77;;;;;;;;;;4880427;29;20029;-73
2023/01/18 00:43:37;;;;;;;7.78;1.73;;;;;;;;;;4880588;29;20039;-73
2023/01/18 00:46:11;;;;;;;10.55;1.70;;;;;;;;;;4880807;29;20041;-73
2023/01/18 00:48:38;;;;;;;9.23;1.83;;;;;;;;;;4880840;29;20097;-73
2023/01/18 00:51:05;;;;;;;7.20;1.77;;;;;;;;;;4878816;29;20048;-75
2023/01/18 00:53:31;;;;;;;9.50;2.05;;;;;;;;;;4880759;29;20037;-74
2023/01/18 00:55:57;;;;;;;6.82;2.00;;;;;;;;;;4879190;29;20483;-74
2023/01/18 00:58:23;;;;;;;10.05;1.95;;;;;;;;;;4880664;29;20040;-74
2023/01/18 01:00:52;;;;;;;9.52;1.70;;;;;;;;;;4880269;29;20035;-75
2023/01/18 01:03:20;;;;;;;5.57;1.55;;;;;;;;;;4890227;29;20372;-76
2023/01/18 01:08:31;;;;;;;8.82;1.80;;;;;;;;;;4898421;29;20060;-76
2023/01/18 01:11:11;;;;;;;11.65;1.73;;;;;;;;;;4873429;29;20115;-73
2023/01/18 01:27:20;;;;;;;9.80;1.92;;;;;;;;;;4899432;29;20111;-73
2023/01/18 01:29:45;;;;;;;8.95;1.67;;;;;;;;;;4898829;29;20112;-75
2023/01/18 01:32:12;;;;;;;7.57;1.48;;;;;;;;;;4898980;29;20033;-74
2023/01/18 01:34:37;;;;;;;7.38;1.17;;;;;;;;;;4882032;29;20388;-74
2023/01/18 01:37:03;;;;;;;5.28;1.25;;;;;;;;;;4899119;29;20084;-75
2023/01/18 01:39:29;;;;;;;6.72;1.33;;;;;;;;;;4899028;29;20428;-75
2023/01/18 01:41:55;;;;;;;6.70;1.17;;;;;;;;;;4897935;29;20061;-75
2023/01/18 01:44:24;;;;;;;7.45;1.08;;;;;;;;;;4900193;29;20033;-75
2023/01/18 01:47:01;;;;;;;11.48;1.80;;;;;;;;;;4899326;29;20036;-74
2023/01/18 01:49:31;;;;;;;5.18;1.30;;;;;;;;;;4898374;29;20538;-73
2023/01/18 01:52:14;;;;;;;7.45;1.50;;;;;;;;;;4890377;29;20029;-74
2023/01/18 01:55:03;;;;;;;6.77;1.10;;;;;;;;;;4891358;29;20044;-75
2023/01/18 01:57:35;;;;;;;6.55;1.55;;;;;;;;;;4898326;29;20064;-75
2023/01/18 02:00:06;;;;;;;6.43;1.45;;;;;;;;;;4882209;29;20507;-75
2023/01/18 02:02:40;;;;;;;9.85;1.30;;;;;;;;;;4880031;29;20033;-74
2023/01/18 02:05:08;;;;;;;7.68;1.45;;;;;;;;;;4903411;29;20533;-72
2023/01/18 02:07:34;;;;;;;10.30;1.50;;;;;;;;;;4885895;29;20016;-75
2023/01/18 02:10:00;;;;;;;8.60;1.52;;;;;;;;;;4899032;29;20084;-75
2023/01/18 02:12:28;;;;;;;10.73;1.25;;;;;;;;;;4897056;29;20104;-75
2023/01/18 02:14:55;;;;;;;7.18;1.50;;;;;;;;;;4895171;29;20080;-72
2023/01/18 02:17:48;;;;;;;7.32;1.40;;;;;;;;;;4916793;29;20522;-74
2023/01/18 02:20:29;;;;;;;7.03;1.30;;;;;;;;;;4915157;29;20052;-74
2023/01/18 02:23:28;;;;;;;3.65;1.30;;;;;;;;;;4917033;29;20064;-76
2023/01/18 02:26:48;;;;;;;5.90;1.48;;;;;;;;;;4915841;29;20035;-75
2023/01/18 02:29:35;;;;;;;6.40;1.48;;;;;;;;;;4877252;29;20041;-75
2023/01/18 02:32:08;;;;;;;6.90;1.30;;;;;;;;;;4916644;29;20095;-76
2023/01/18 02:35:21;;;;;;;5.32;1.40;;;;;;;;;;4917366;29;20469;-75
2023/01/18 02:38:20;;;;;;;5.15;1.10;;;;;;;;;;4913236;29;20059;-74
2023/01/18 02:41:04;;;;;;;10.75;1.77;;;;;;;;;;4877121;29;20097;-74
2023/01/18 02:48:52;;;;;;;9.77;2.42;;;;;;;;;;4856831;29;20560;-73
2023/01/18 02:51:18;;;;;;;9.60;1.63;;;;;;;;;;4860939;29;20041;-73
2023/01/18 02:53:46;;;;;;;10.60;2.03;;;;;;;;;;4862314;29;20066;-73
2023/01/18 02:56:23;;;;;;;8.43;1.67;;;;;;;;;;4858441;29;20045;-74
2023/01/18 02:59:17;;;;;;;7.35;2.13;;;;;;;;;;4842799;29;20037;-74
2023/01/18 03:02:03;;;;;;;;;;;;;;;;;;4852031;29;20400;-73
2023/01/18 03:04:54;;;;;;;10.18;2.05;;;;;;;;;;4857912;29;19916;-73
2023/01/18 03:07:29;;;;;;;8.70;2.08;;;;;;;;;;4857730;29;20128;-73
2023/01/18 03:09:56;;;;;;;8.38;1.70;;;;;;;;;;4863517;29;20045;-73
2023/01/18 03:12:44;;;;;;;7.07;1.83;;;;;;;;;;4862552;29;20555;-73
2023/01/18 03:15:16;;;;;;;5.80;1.65;;;;;;;;;;4861576;29;20125;-73
2023/01/18 03:17:51;;;;;;;5.82;1.40;;;;;;;;;;4895654;29;20040;-72
2023/01/18 03:20:24;;;;;;;5.55;1.55;;;;;;;;;;4897030;29;20036;-76
2023/01/18 03:25:44;;;;;;;7.47;2.05;;;;;;;;;;4890918;29;20093;-75
2023/01/18 03:33:48;;;;;;;5.97;1.58;;;;;;;;;;4878636;29;20100;-75
2023/01/18 03:36:20;;;;;;;5.45;1.75;;;;;;;;;;4877167;29;20480;-74
2023/01/18 03:38:54;;;;;;;5.13;1.10;;;;;;;;;;4878355;29;20463;-75
2023/01/18 03:41:23;;;;;;;7.70;1.65;;;;;;;;;;4876926;29;20120;-74
2023/01/18 03:43:52;;;;;;;7.97;1.70;;;;;;;;;;4878125;29;20053;-74
2023/01/18 03:46:19;;;;;;;8.65;1.65;;;;;;;;;;4878423;29;20045;-75
2023/01/18 03:48:45;;;;;;;11.70;1.40;;;;;;;;;;4887375;29;20075;-74
2023/01/18 03:51:29;;;;;;;5.20;1.50;;;;;;;;;;4896509;29;20096;-76
2023/01/18 03:54:26;;;;;;;6.60;1.67;;;;;;;;;;4897017;29;20060;-74
2023/01/18 03:56:57;;;;;;;14.30;1.63;;;;;;;;;;4903048;29;20052;-74
2023/01/18 03:59:28;;;;;;;13.65;1.50;;;;;;;;;;4896970;29;20418;-74
2023/01/18 04:01:54;;;;;;;7.50;1.20;;;;;;;;;;4896592;29;20121;-75
2023/01/18 04:04:20;;;;;;;6.57;1.48;;;;;;;;;;4879944;29;20439;-74
2023/01/18 04:06:46;;;;;;;6.97;1.50;;;;;;;;;;4895489;29;20127;-75
2023/01/18 04:09:12;;;;;;;13.73;1.95;;;;;;;;;;4895913;29;20111;-75
2023/01/18 04:11:37;;;;;;;7.90;1.50;;;;;;;;;;4887467;29;20399;-74
2023/01/18 04:14:03;;;;;;;8.45;1.98;;;;;;;;;;4900223;29;20044;-74
2023/01/18 04:16:29;;;;;;;7.25;1.52;;;;;;;;;;4900032;29;20179;-74
2023/01/18 04:18:55;;;;;;;12.35;1.60;;;;;;;;;;4900285;29;20104;-75
2023/01/18 04:21:20;;;;;;;8.48;1.50;;;;;;;;;;4883628;29;20036;-75
2023/01/18 04:23:46;;;;;;;13.15;1.92;;;;;;;;;;4898853;29;20020;-75
2023/01/18 04:26:15;;;;;;;8.32;2.42;;;;;;;;;;4899176;29;20107;-75
2023/01/18 04:28:41;;;;;;;6.10;1.25;;;;;;;;;;4900365;29;20395;-75
2023/01/18 04:31:08;;;;;;;11.73;1.55;;;;;;;;;;4900211;29;20048;-76
2023/01/18 04:33:34;;;;;;;13.32;1.63;;;;;;;;;;4899892;29;20079;-76
2023/01/18 04:36:00;;;;;;;5.90;1.42;;;;;;;;;;4898619;29;20045;-74
2023/01/18 04:38:25;;;;;;;7.72;1.83;;;;;;;;;;4900082;29;20028;-74
2023/01/18 04:40:51;;;;;;;10.52;2.08;;;;;;;;;;4899772;29;20372;-75
2023/01/18 04:43:17;;;;;;;7.45;1.40;;;;;;;;;;4898973;29;20479;-75
2023/01/18 04:45:52;;;;;;;8.98;1.80;;;;;;;;;;4900009;29;20064;-75
2023/01/18 04:48:17;;;;;;;7.07;1.80;;;;;;;;;;4899718;29;20463;-75
2023/01/18 04:50:45;;;;;;;7.72;1.70;;;;;;;;;;4899636;29;20107;-75
2023/01/18 04:53:11;;;;;;;7.78;1.70;;;;;;;;;;4883369;29;20430;-76
2023/01/18 04:55:36;;;;;;;7.90;1.50;;;;;;;;;;4899083;29;20028;-76
2023/01/18 04:58:03;;;;;;;8.88;2.13;;;;;;;;;;4899214;29;20123;-74
2023/01/18 05:00:28;;;;;;;6.88;1.80;;;;;;;;;;4880130;29;20112;-75
2023/01/18 05:02:54;;;;;;;15.07;2.28;;;;;;;;;;4895470;29;20040;-75
2023/01/18 05:05:21;;;;;;;10.27;2.30;;;;;;;;;;4900465;29;20036;-75
2023/01/18 05:07:46;;;;;;;10.85;2.83;;;;;;;;;;4899443;29;20055;-74
2023/01/18 05:10:13;;;;;;;13.32;3.08;;;;;;;;;;4899143;29;20112;-74
2023/01/18 05:12:40;;;;;;;9.07;1.83;;;;;;;;;;4899529;29;20150;-74
2023/01/18 05:15:06;;;;;;;12.18;2.75;;;;;;;;;;4897644;29;20036;-74
2023/01/18 05:17:34;;;;;;;10.60;2.55;;;;;;;;;;4898973;29;20039;-75
2023/01/18 05:20:07;;;;;;;11.82;2.78;;;;;;;;;;4899206;29;20036;-75
2023/01/18 05:22:35;;;;;;;11.43;3.17;;;;;;;;;;4899147;29;20363;-75
2023/01/18 05:25:01;;;;;;;11.35;3.13;;;;;;;;;;4878056;29;20096;-75
2023/01/18 05:27:26;;;;;;;12.18;3.08;;;;;;;;;;4881327;29;20040;-76
2023/01/18 05:29:52;;;;;;;14.13;2.97;;;;;;;;;;4899049;29;20241;-75
2023/01/18 05:32:18;;;;;;;8.88;3.25;;;;;;;;;;4897934;29;20060;-75
2023/01/18 05:34:43;;;;;;;9.15;2.42;;;;;;;;;;4898282;29;20029;-74
2023/01/18 05:37:10;;;;;;;10.45;3.50;;;;;;;;;;4902848;29;20028;-74
2023/01/18 05:39:37;;;;;;;19.75;4.28;;;;;;;;;;4861770;29;20044;-77
2023/01/18 05:42:04;;;;;;;14.68;2.97;;;;;;;;;;4890354;29;20037;-78
2023/01/18 05:44:30;;;;;;;14.95;2.80;;;;;;;;;;4897323;29;20035;-77
2023/01/18 05:46:57;;;;;;;17.63;2.85;;;;;;;;;;4898856;29;20032;-76
2023/01/18 05:49:23;;;;;;;16.15;2.83;;;;;;;;;;4881614;29;20024;-78
2023/01/18 05:51:50;;;;;;;9.38;2.75;;;;;;;;;;4881301;29;20041;-76
2023/01/18 05:54:18;;;;;;;17.48;2.88;;;;;;;;;;4897708;29;20092;-76
2023/01/18 05:56:44;;;;;;;20.60;3.05;;;;;;;;;;4866087;29;20045;-76
2023/01/18 05:59:10;;;;;;;20.20;3.38;;;;;;;;;;4897601;29;20020;-77
2023/01/18 06:01:36;;;;;;;27.55;3.95;;;;;;;;;;4878143;29;20072;-75
2023/01/18 06:04:01;;;;;;;17.38;3.75;;;;;;;;;;4897018;29;20088;-75
2023/01/18 06:06:28;;;;;;;15.27;3.22;;;;;;;;;;4899866;29;20277;-76
2023/01/18 06:08:54;;;;;;;30.52;3.67;;;;;;;;;;4897726;29;20475;-78
2023/01/18 06:11:20;;;;;;;17.50;3.42;;;;;;;;;;4880258;29;20139;-76
2023/01/18 06:13:45;;;;;;;18.60;3.65;;;;;;;;;;4896660;29;20183;-76
2023/01/18 06:16:12;;;;;;;20.58;3.47;;;;;;;;;;4896941;29;20039;-76
2023/01/18 06:18:38;;;;;;;30.80;3.90;;;;;;;;;;4881444;29;20043;-77
2023/01/18 06:21:04;;;;;;;28.13;4.53;;;;;;;;;;4898261;29;20037;-73
2023/01/18 06:23:30;;;;;;;26.77;4.47;;;;;;;;;;4897453;29;20040;-79
2023/01/18 06:25:58;;;;;;;22.27;4.43;;;;;;;;;;4896345;29;20107;-75
2023/01/18 06:28:23;;;;;;;27.30;5.40;;;;;;;;;;4897243;29;20499;-75
2023/01/18 06:30:54;;;;;;;33.97;5.95;;;;;;;;;;4880607;29;20054;-77
2023/01/18 06:33:20;;;;;;;35.88;6.03;;;;;;;;;;4880838;29;20040;-75
2023/01/18 06:35:46;;;;;;;37.95;6.10;;;;;;;;;;4896162;29;20032;-76
2023/01/18 06:38:12;;;;;;;25.45;4.95;;;;;;;;;;4879998;29;20044;-74
2023/01/18 06:40:38;;;;;;;25.67;4.80;;;;;;;;;;4896922;29;20016;-75
2023/01/18 06:43:06;;;;;;;41.72;6.85;;;;;;;;;;4887975;29;20088;-75
2023/01/18 06:45:32;;;;;;;36.20;6.22;;;;;;;;;;4883849;29;20032;-75
2023/01/18 06:47:58;;;;;;;45.35;5.55;;;;;;;;;;4916188;29;20048;-74
2023/01/18 06:50:23;;;;;;;40.45;6.63;;;;;;;;;;4913495;29;20032;-74
2023/01/18 06:52:50;;;;;;;39.20;5.78;;;;;;;;;;4905610;29;20035;-75
2023/01/18 06:55:18;;;;;;;45.42;5.80;;;;;;;;;;4881002;29;20051;-73
2023/01/18 06:57:44;;;;;;;41.20;5.43;;;;;;;;;;4895914;29;20044;-72
2023/01/18 07:00:11;;;;;;;44.33;5.78;;;;;;;;;;4897532;29;20029;-72
2023/01/18 07:02:37;;;;;;;26.02;5.72;;;;;;;;;;4896752;29;20051;-72
2023/01/18 07:05:04;;;;;;;34.60;5.10;;;;;;;;;;4896627;29;20268;-73
2023/01/18 07:07:30;;;;;;;56.38;7.13;;;;;;;;;;4896026;29;20037;-74
2023/01/18 07:09:56;;;;;;;56.85;6.55;;;;;;;;;;4893421;29;20025;-72
2023/01/18 07:12:21;;;;;;;54.28;7.80;;;;;;;;;;4892340;29;20096;-74
2023/01/18 07:14:47;;;;;;;50.95;6.95;;;;;;;;;;4896091;29;20028;-72
2023/01/18 07:17:14;;;;;;;54.70;6.47;;;;;;;;;;4896753;29;20195;-73
2023/01/18 07:19:39;;;;;;;39.08;6.80;;;;;;;;;;4892218;29;20024;-73
2023/01/18 07:22:05;;;;;;;55.00;7.15;;;;;;;;;;4904268;29;20406;-72
2023/01/18 07:24:31;;;;;;;53.58;6.97;;;;;;;;;;4898696;29;20122;-72
2023/01/18 07:26:59;;;;;;;44.17;6.25;;;;;;;;;;4916237;29;20036;-72
2023/01/18 07:29:26;;;;;;;122.32;13.32;;;;;;;;;;4902290;29;20024;-72
2023/01/18 07:31:53;;;;;;;42.13;6.88;;;;;;;;;;4896368;29;20108;-72
2023/01/18 07:34:19;;;;;;;41.25;7.22;;;;;;;;;;4896205;29;20028;-71
2023/01/18 07:36:45;;;;;;;52.58;7.35;;;;;;;;;;4894609;29;20104;-73
2023/01/18 07:39:11;;;;;;;45.70;7.28;;;;;;;;;;4896243;29;20479;-72
2023/01/18 07:41:37;;;;;;;47.25;7.15;;;;;;;;;;4896094;29;20047;-73
2023/01/18 07:44:04;;;;;;;43.67;7.60;;;;;;;;;;4895604;29;20103;-72
2023/01/18 07:46:30;;;;;;;50.72;7.00;;;;;;;;;;4896639;29;20060;-73
2023/01/18 07:48:55;;;;;;;61.47;8.07;;;;;;;;;;4883181;29;20392;-73
2023/01/18 07:51:22;;;;;;;42.90;6.25;;;;;;;;;;4899787;29;20100;-72
2023/01/18 07:53:52;;;;;;;55.75;6.97;;;;;;;;;;4899635;29;20497;-74
2023/01/18 07:56:18;;;;;;;69.78;7.07;;;;;;;;;;4899826;29;20092;-72
2023/01/18 07:58:45;;;;;;;51.97;6.28;;;;;;;;;;4899938;29;20420;-71
2023/01/18 08:01:14;;;;;;;53.63;6.30;;;;;;;;;;4899632;29;20112;-71
2023/01/18 08:03:42;;;;;;;47.13;6.85;;;;;;;;;;4899973;29;20520;-74
2023/01/18 08:06:15;;;;;;;55.88;6.55;;;;;;;;;;4900263;29;20111;-72
2023/01/18 08:08:42;;;;;;;58.53;9.43;;;;;;;;;;4900709;29;20486;-73
2023/01/18 08:11:08;;;;;;;56.10;8.13;;;;;;;;;;4900542;29;20036;-72
2023/01/18 08:13:35;;;;;;;52.42;7.68;;;;;;;;;;4900122;29;20029;-71
2023/01/18 08:16:04;;;;;;;49.30;6.07;;;;;;;;;;4900134;29;20028;-73
2023/01/18 08:18:30;;;;;;;62.70;6.45;;;;;;;;;;4899292;29;20504;-72
2023/01/18 08:20:56;;;;;;;52.55;6.00;;;;;;;;;;4883058;29;20060;-71
2023/01/18 08:23:23;;;;;;;55.47;7.15;;;;;;;;;;4899929;29;20047;-72
2023/01/18 08:25:49;;;;;;;55.03;8.15;;;;;;;;;;4899742;29;20029;-71
2023/01/18 08:28:15;;;;;;;67.82;7.07;;;;;;;;;;4899360;29;20164;-71
2023/01/18 08:30:44;;;;;;;53.15;7.65;;;;;;;;;;4897946;29;20036;-72
2023/01/18 08:33:11;;;;;;;45.72;6.32;;;;;;;;;;4899517;29;20406;-72
2023/01/18 08:35:44;;;;;;;50.65;7.38;;;;;;;;;;4882531;29;20135;-73
2023/01/18 08:38:12;;;;;;;55.15;7.57;;;;;;;;;;4899696;29;20116;-73
2023/01/18 08:40:39;;;;;;;47.35;7.60;;;;;;;;;;4899520;29;20035;-73
2023/01/18 08:43:05;;;;;;;59.70;8.35;;;;;;;;;;4899470;29;20092;-71
2023/01/18 08:45:31;;;;;;;58.30;7.88;;;;;;;;;;4882469;29;20055;-72
2023/01/18 08:47:59;;;;;;;63.95;7.80;;;;;;;;;;4899332;29;20384;-73
2023/01/18 08:50:26;;;;;;;62.03;7.15;;;;;;;;;;4882309;29;20024;-73
2023/01/18 08:52:52;;;;;;;71.40;9.65;;;;;;;;;;4899270;29;20052;-72
2023/01/18 08:55:19;;;;;;;60.40;8.85;;;;;;;;;;4882143;29;20028;-72
2023/01/18 08:57:45;;;;;;;63.40;9.05;;;;;;;;;;4898605;29;20487;-72
2023/01/18 09:00:11;;;;;;;53.58;8.05;;;;;;;;;;4895950;29;20035;-75
2023/01/18 09:02:38;;;;;;;47.47;7.57;;;;;;;;;;4884012;29;20063;-75
2023/01/18 09:05:05;;;;;;;54.80;7.18;;;;;;;;;;4892965;29;20076;-73
2023/01/18 09:07:31;;;;;;;64.55;8.57;;;;;;;;;;4883308;29;20083;-73
2023/01/18 09:09:56;;;;;;;65.35;7.82;;;;;;;;;;4898276;29;20052;-73
2023/01/18 09:12:22;;;;;;;52.70;7.75;;;;;;;;;;4898973;29;20037;-73
2023/01/18 09:14:49;;;;;;;50.22;8.38;;;;;;;;;;4898959;29;20084;-72
2023/01/18 09:17:18;;;;;;;54.58;9.13;;;;;;;;;;4898709;29;20028;-72
2023/01/18 09:19:44;;;;;;;52.17;9.18;;;;;;;;;;4898833;29;20043;-73
2023/01/18 09:22:11;;;;;;;50.47;8.35;;;;;;;;;;4898254;29;20044;-73
2023/01/18 09:24:36;;;;;;;52.70;9.60;;;;;;;;;;4901296;29;20041;-72
2023/01/18 09:27:03;;;;;;;81.50;10.68;;;;;;;;;;4898609;29;20084;-74
2023/01/18 09:29:30;;;;;;;68.07;9.30;;;;;;;;;;4897486;29;20471;-72
2023/01/18 09:31:56;;;;;;;47.75;7.13;;;;;;;;;;4894089;29;20039;-72
2023/01/18 09:34:22;;;;;;;60.33;8.48;;;;;;;;;;4898406;29;20411;-72
2023/01/18 09:36:51;;;;;;;52.22;7.95;;;;;;;;;;4898726;29;20113;-73
2023/01/18 09:39:21;;;;;;;51.80;8.35;;;;;;;;;;4898633;29;20024;-72
2023/01/18 09:42:14;;;;;;;56.90;8.30;;;;;;;;;;4898542;29;20491;-72
2023/01/18 09:44:41;;;;;;;67.93;8.32;;;;;;;;;;4898553;29;20253;-73
2023/01/18 09:47:35;;;;;;;67.47;9.48;;;;;;;;;;4898934;29;20028;-73
2023/01/18 09:50:16;;;;;;;54.55;8.85;;;;;;;;;;4876410;29;20447;-72
2023/01/18 09:53:03;;;;;;;70.60;8.95;;;;;;;;;;4895931;29;20123;-72
2023/01/18 09:55:51;;;;;;;60.70;6.70;;;;;;;;;;4897881;29;20044;-71
2023/01/18 09:58:43;;;;;;;60.85;8.05;;;;;;;;;;4897948;29;20455;-69
2023/01/18 10:01:20;;;;;;;56.13;7.95;;;;;;;;;;4857665;29;20046;-70
2023/01/18 10:03:55;;;;;;;58.28;7.55;;;;;;;;;;4857080;29;20060;-70
2023/01/18 10:06:53;;;;;;;53.78;8.80;;;;;;;;;;4856253;29;20049;-70
2023/01/18 10:09:28;;;;;;;72.80;8.27;;;;;;;;;;4845455;29;20346;-70
2023/01/18 10:11:59;;;;;;;60.33;9.02;;;;;;;;;;4857691;29;20519;-70
2023/01/18 10:14:44;;;;;;;64.43;8.07;;;;;;;;;;4857026;29;20156;-70
2023/01/18 10:17:16;;;;;;;48.33;8.20;;;;;;;;;;4852840;29;20057;-70
2023/01/18 10:19:43;;;;;;;65.15;9.15;;;;;;;;;;4858341;29;20595;-69
2023/01/18 10:22:31;;;;;;;59.80;9.00;;;;;;;;;;4842607;29;20038;-70
2023/01/18 10:25:08;;;;;;;67.07;7.55;;;;;;;;;;4824524;29;20065;-72
2023/01/18 10:27:55;;;;;;;51.70;7.03;;;;;;;;;;4855846;29;20104;-70
2023/01/18 10:30:30;;;;;;;70.55;9.50;;;;;;;;;;4857991;29;20446;-70
2023/01/18 10:32:58;;;;;;;65.05;9.18;;;;;;;;;;4859417;29;20065;-71
2023/01/18 10:35:30;;;;;;;61.40;8.35;;;;;;;;;;4859181;29;20029;-70
2023/01/18 10:38:02;;;;;;;58.40;8.63;;;;;;;;;;4875490;29;20128;-71
2023/01/18 10:40:27;;;;;;;46.42;6.25;;;;;;;;;;4880684;29;20040;-70
2023/01/18 10:43:03;;;;;;;68.20;10.07;;;;;;;;;;4897586;29;20088;-69
2023/01/18 10:45:31;;;;;;;51.03;7.55;;;;;;;;;;4897268;29;20387;-70
2023/01/18 10:48:18;;;;;;;52.42;7.43;;;;;;;;;;4896950;29;20199;-70
2023/01/18 10:50:47;;;;;;;52.03;7.95;;;;;;;;;;4897335;29;20491;-71
2023/01/18 10:53:23;;;;;;;58.92;9.18;;;;;;;;;;4897338;29;20029;-69
2023/01/18 10:55:55;;;;;;;58.20;8.90;;;;;;;;;;4897390;29;20491;-70
2023/01/18 10:58:44;;;;;;;61.60;8.13;;;;;;;;;;4897354;29;20084;-70
2023/01/18 11:01:26;;;;;;;60.03;7.95;;;;;;;;;;4887332;29;20033;-70
2023/01/18 11:04:14;;;;;;;43.25;8.85;;;;;;;;;;4886892;29;20087;-70
2023/01/18 11:06:48;;;;;;;70.60;10.90;;;;;;;;;;4897329;29;20033;-71
2023/01/18 11:09:33;;;;;;;54.42;8.52;;;;;;;;;;4880162;29;20039;-71
2023/01/18 11:12:35;;;;;;;62.53;7.70;;;;;;;;;;4889673;29;20120;-71
2023/01/18 11:15:12;;;;;;;71.47;10.23;;;;;;;;;;4877077;29;20048;-71
2023/01/18 11:17:56;;;;;;;69.00;9.90;;;;;;;;;;4896337;29;20032;-71
2023/01/18 11:20:33;;;;;;;57.20;8.57;;;;;;;;;;4892478;29;20037;-70
2023/01/18 11:23:13;;;;;;;51.45;9.48;;;;;;;;;;4889959;29;20073;-69
2023/01/18 11:25:41;;;;;;;92.68;11.35;;;;;;;;;;4897000;29;20043;-70
2023/01/18 11:28:26;;;;;;;63.40;9.10;;;;;;;;;;4895548;29;20025;-71
2023/01/18 11:31:17;;;;;;;64.93;9.23;;;;;;;;;;4883681;29;20037;-70
2023/01/18 11:33:54;;;;;;;77.40;10.50;;;;;;;;;;4878791;29;20147;-71
2023/01/18 11:36:36;;;;;;;68.57;10.18;;;;;;;;;;4896264;29;20094;-72
2023/01/18 11:39:31;;;;;;;60.63;10.90;;;;;;;;;;4896311;29;20084;-72
2023/01/18 11:42:30;;;;;;;61.50;9.43;;;;;;;;;;4889249;29;20059;-71
2023/01/18 11:45:21;;;;;;;76.30;10.73;;;;;;;;;;4896557;29;20096;-71
2023/01/18 11:48:15;;;;;;;71.55;9.90;;;;;;;;;;4894966;29;20079;-71
2023/01/18 11:50:46;;;;;;;65.22;9.60;;;;;;;;;;4894560;29;20115;-71
2023/01/18 11:53:33;;;;;;;70.05;10.07;;;;;;;;;;4899742;29;20032;-70
2023/01/18 11:56:21;;;;;;;63.22;9.90;;;;;;;;;;4896359;29;20498;-70
2023/01/18 11:58:48;;;;;;;53.97;8.95;;;;;;;;;;4888687;29;20048;-71
2023/01/18 12:01:22;;;;;;;59.25;8.52;;;;;;;;;;4895910;29;20025;-70
2023/01/18 12:03:57;;;;;;;46.95;8.07;;;;;;;;;;4895770;29;20037;-71
2023/01/18 12:06:44;;;;;;;64.80;9.52;;;;;;;;;;4896108;29;20032;-72
2023/01/18 12:09:22;;;;;;;56.03;9.75;;;;;;;;;;4895284;29;20064;-71
2023/01/18 12:12:06;;;;;;;62.33;8.40;;;;;;;;;;4896091;29;20100;-71
2023/01/18 12:15:06;;;;;;;65.63;9.20;;;;;;;;;;4895902;29;20051;-70
2023/01/18 12:18:18;;;;;;;76.05;9.90;;;;;;;;;;4896516;29;20076;-70
2023/01/18 12:21:24;;;;;;;56.88;9.20;;;;;;;;;;4886365;29;20055;-71
2023/01/18 12:24:19;;;;;;;62.85;8.20;;;;;;;;;;4894975;29;20028;-71
2023/01/18 12:26:59;;;;;;;55.05;8.52;;;;;;;;;;4893382;29;20490;-69
2023/01/18 12:29:52;;;;;;;56.60;9.20;;;;;;;;;;4886528;29;20028;-71
2023/01/18 12:32:20;;;;;;;56.38;9.57;;;;;;;;;;4894660;29;20088;-71
2023/01/18 12:35:14;;;;;;;54.95;8.63;;;;;;;;;;4897351;29;20533;-71
2023/01/18 12:38:17;;;;;;;51.55;9.00;;;;;;;;;;4897470;29;20092;-71
2023/01/18 12:41:24;;;;;;;63.60;9.67;;;;;;;;;;4891391;29;20045;-72
2023/01/18 12:44:01;;;;;;;60.45;9.52;;;;;;;;;;4899320;29;20291;-70
2023/01/18 12:46:30;;;;;;;65.63;8.88;;;;;;;;;;4899939;29;20104;-72
2023/01/18 12:49:04;;;;;;;54.80;8.98;;;;;;;;;;4892082;29;20080;-71
2023/01/18 12:51:34;;;;;;;72.20;9.80;;;;;;;;;;4899243;29;20131;-72
2023/01/18 12:54:12;;;;;;;51.70;9.35;;;;;;;;;;4899507;29;20062;-71
2023/01/18 12:56:40;;;;;;;47.63;8.80;;;;;;;;;;4883767;29;20068;-71
2023/01/18 12:59:12;;;;;;;56.50;9.70;;;;;;;;;;4898806;29;20084;-72
2023/01/18 13:01:43;;;;;;;50.13;8.77;;;;;;;;;;4897165;29;20025;-72
2023/01/18 13:04:19;;;;;;;58.58;10.73;;;;;;;;;;4898728;29;20503;-72
2023/01/18 13:06:49;;;;;;;50.83;8.52;;;;;;;;;;4897754;29;20036;-71
2023/01/18 13:09:20;;;;;;;47.13;9.10;;;;;;;;;;4894700;29;20502;-72
2023/01/18 13:11:47;;;;;;;38.85;7.72;;;;;;;;;;4894818;29;20033;-70
2023/01/18 13:15:00;;;;;;;52.25;8.43;;;;;;;;;;4891170;29;20104;-70
2023/01/18 13:17:26;;;;;;;48.28;8.48;;;;;;;;;;4886313;29;20135;-70
2023/01/18 13:20:02;;;;;;;50.35;7.30;;;;;;;;;;4896123;29;20108;-70
2023/01/18 13:22:42;;;;;;;47.85;7.93;;;;;;;;;;4897721;29;20040;-71
2023/01/18 13:25:32;;;;;;;37.33;7.82;;;;;;;;;;4892226;29;20082;-71
2023/01/18 13:28:01;;;;;;;44.38;8.55;;;;;;;;;;4881654;29;20032;-70
2023/01/18 13:30:31;;;;;;;51.25;7.85;;;;;;;;;;4897708;29;20020;-71
2023/01/18 13:32:58;;;;;;;48.88;8.80;;;;;;;;;;4897495;29;20497;-70
2023/01/18 13:35:32;;;;;;;50.70;8.40;;;;;;;;;;4897640;29;20115;-70
2023/01/18 13:38:01;;;;;;;39.65;8.40;;;;;;;;;;4895209;29;20076;-70
2023/01/18 13:40:30;;;;;;;54.58;7.30;;;;;;;;;;4896617;29;20052;-70
2023/01/18 13:42:56;;;;;;;45.33;7.10;;;;;;;;;;4889472;29;20060;-72
2023/01/18 13:45:24;;;;;;;49.60;7.97;;;;;;;;;;4895548;29;20029;-72
2023/01/18 13:47:59;;;;;;;46.03;7.00;;;;;;;;;;4892917;29;20033;-70
2023/01/18 13:50:27;;;;;;;31.35;6.88;;;;;;;;;;4896761;29;20052;-71
2023/01/18 13:53:12;;;;;;;51.45;8.02;;;;;;;;;;4889056;29;20057;-71
2023/01/18 13:55:45;;;;;;;45.10;7.60;;;;;;;;;;4879369;29;20108;-71
2023/01/18 13:58:31;;;;;;;39.53;6.70;;;;;;;;;;4895513;29;20041;-70
2023/01/18 14:01:03;;;;;;;40.30;8.38;;;;;;;;;;4896481;29;20036;-71
2023/01/18 14:03:33;;;;;;;43.42;7.32;;;;;;;;;;4879589;29;20056;-70
2023/01/18 14:06:11;;;;;;;35.72;7.43;;;;;;;;;;4897029;29;20291;-71
2023/01/18 14:08:47;;;;;;;42.33;7.75;;;;;;;;;;4880724;29;20071;-73
2023/01/18 14:11:33;;;;;;;45.60;9.02;;;;;;;;;;4879883;29;20499;-73
2023/01/18 14:14:22;;;;;;;61.72;9.00;;;;;;;;;;4879065;29;20056;-70
2023/01/18 14:17:11;;;;;;;50.97;7.70;;;;;;;;;;4887085;29;20060;-73
2023/01/18 14:20:07;;;;;;;41.80;7.05;;;;;;;;;;4895767;29;20143;-70
2023/01/18 14:22:51;;;;;;;45.53;6.88;;;;;;;;;;4854745;29;20045;-71
2023/01/18 14:25:34;;;;;;;46.95;8.10;;;;;;;;;;4857535;29;20041;-73
2023/01/18 14:28:06;;;;;;;;;;;;;;;;;;4871896;29;20045;-71
2023/01/18 14:30:35;;;;;;;48.17;8.80;;;;;;;;;;4875487;29;20321;-71
2023/01/18 14:33:24;;;;;;;44.42;6.95;;;;;;;;;;4876139;29;20591;-71
2023/01/18 14:35:59;;;;;;;36.33;6.45;;;;;;;;;;4868492;29;20456;-72
2023/01/18 14:38:26;;;;;;;37.90;6.70;;;;;;;;;;4856291;29;20037;-71
2023/01/18 14:40:56;;;;;;;37.25;7.93;;;;;;;;;;4855929;29;20523;-73
2023/01/18 14:43:26;;;;;;;41.72;6.95;;;;;;;;;;4856706;29;20138;-71
2023/01/18 14:45:59;;;;;;;52.30;6.88;;;;;;;;;;4855250;29;20052;-71
2023/01/18 14:48:26;;;;;;;48.17;7.15;;;;;;;;;;4851310;29;20563;-70
2023/01/18 14:50:54;;;;;;;37.50;6.30;;;;;;;;;;4855566;29;20045;-71
2023/01/18 14:53:28;;;;;;;46.85;6.65;;;;;;;;;;4841183;29;20132;-72
2023/01/18 14:56:06;;;;;;;32.75;7.53;;;;;;;;;;4857393;29;20138;-71
2023/01/18 14:58:36;;;;;;;40.08;7.78;;;;;;;;;;4860876;29;20230;-71
2023/01/18 15:01:02;;;;;;;52.88;11.13;;;;;;;;;;4890508;29;20025;-71
2023/01/18 15:03:29;;;;;;;46.38;10.65;;;;;;;;;;4891581;29;20443;-71
2023/01/18 15:06:00;;;;;;;39.40;10.30;;;;;;;;;;4893653;29;20044;-72
2023/01/18 15:08:29;;;;;;;52.58;9.25;;;;;;;;;;4895251;29;20414;-73
2023/01/18 15:10:55;;;;;;;43.67;8.77;;;;;;;;;;4886313;29;20033;-72
2023/01/18 15:13:25;;;;;;;43.97;8.10;;;;;;;;;;4894409;29;20068;-71
2023/01/18 15:15:53;;;;;;;46.72;9.25;;;;;;;;;;4878941;29;20598;-71
2023/01/18 15:18:22;;;;;;;50.60;8.98;;;;;;;;;;4877969;29;20105;-71
2023/01/18 15:21:13;;;;;;;49.03;10.68;;;;;;;;;;4895787;29;20028;-70
2023/01/18 15:23:40;;;;;;;43.13;9.20;;;;;;;;;;4896581;29;20068;-72
2023/01/18 15:26:05;;;;;;;39.05;9.85;;;;;;;;;;4896423;29;20063;-73
2023/01/18 15:28:35;;;;;;;46.30;9.18;;;;;;;;;;4896832;29;20071;-72
2023/01/18 15:31:14;;;;;;;50.33;9.35;;;;;;;;;;4896428;29;20071;-71
2023/01/18 15:33:41;;;;;;;50.08;10.25;;;;;;;;;;4895576;29;20100;-71
2023/01/18 15:36:08;;;;;;;56.20;10.95;;;;;;;;;;4896581;29;20039;-70